In Rescue
 
Open Full Screen Window  High Contrast Mode
Wind Gusting 19 knots
13
November 14, 2019 12:36 PM CST
Weather Information
Wind Direction
  240 °
Wind Speed
  13 kt (15 mph)
Wind Gust
  19 kt (22 mph)
Altimeter
30.01 in
Visibility
10 SM
Temperature
-03° C
27° F
Dewpoint
-13° C
F
Humidity
46%
1hr Rain Fall
00.00 in.
24hr Rain Fall
00.00 in.
Sky Condition
Clear
VFR

METAR KTWM 141836Z AUTO 24013G19KT 10SM CLR M03/M13 A3001 RMK AO2

FAA Disclaimer: The data displayed is for advisory purposes only and is not to be used for flight planning or operations.